NOZ1829 ESSA-LFMN
Flight info
| Callsign | NOZ1829 |
|---|---|
| Flight time | N/A |
| Altitude | 34000 |
| Route | NOSLI N850 ABAMA DCT BAGOS DCT HAM DCT MAWEQ DCT ASBON/N0460F350 DCT ELVET DCT OBORN DCT MOROK DCT GILIR DCT GEVEA DCT KOGAS/N0461F290 DCT MEDAM DCT VEVAR |
| Aircraft | B738/M-SDE2E3FGHIRWXY/LB1 |
Departure
| Time | 2026-05-07 16:59 |
|---|---|
| Airport | Stockholm-Arlanda Airport (ESSA) |
Arrival
| Time | N/A |
|---|---|
| Airport | Nice-Côte d'Azur Airport (LFMN) |
| Time | Latitude | Longitude | Altitude | Speed | Heading |
|---|---|---|---|---|---|
| 2026-05-07 16:10 | 59.65164 | 17.92621 | 137 ft | 0 kts | 161° |
| 2026-05-07 16:51 | 59.65174 | 17.92613 | 137 ft | 2 kts | 161° |
| 2026-05-07 16:51 | 59.65190 | 17.92603 | 137 ft | 2 kts | 161° |
| 2026-05-07 16:51 | 59.65205 | 17.92592 | 137 ft | 2 kts | 161° |
| 2026-05-07 16:52 | 59.65221 | 17.92589 | 137 ft | 2 kts | 215° |
| 2026-05-07 16:52 | 59.65233 | 17.92611 | 137 ft | 2 kts | 233° |
| 2026-05-07 16:52 | 59.65241 | 17.92639 | 137 ft | 2 kts | 256° |
| 2026-05-07 16:52 | 59.65239 | 17.92670 | 137 ft | 2 kts | 289° |
| 2026-05-07 16:53 | 59.65234 | 17.92700 | 137 ft | 1 kts | 290° |
| 2026-05-07 16:53 | 59.65233 | 17.92704 | 137 ft | 0 kts | 290° |
| 2026-05-07 16:53 | 59.65234 | 17.92697 | 137 ft | 0 kts | 290° |
| 2026-05-07 16:55 | 59.65235 | 17.92692 | 137 ft | 3 kts | 290° |
| 2026-05-07 16:55 | 59.65253 | 17.92592 | 137 ft | 9 kts | 291° |
| 2026-05-07 16:55 | 59.65282 | 17.92454 | 137 ft | 12 kts | 292° |
| 2026-05-07 16:55 | 59.65308 | 17.92313 | 137 ft | 9 kts | 297° |
| 2026-05-07 16:56 | 59.65364 | 17.92278 | 137 ft | 10 kts | 9° |
| 2026-05-07 16:56 | 59.65458 | 17.92312 | 137 ft | 18 kts | 10° |
| 2026-05-07 16:56 | 59.65707 | 17.92402 | 137 ft | 18 kts | 10° |
| 2026-05-07 16:57 | 59.65822 | 17.92442 | 137 ft | 13 kts | 10° |
| 2026-05-07 16:57 | 59.65899 | 17.92427 | 137 ft | 11 kts | 316° |
| 2026-05-07 16:57 | 59.65921 | 17.92280 | 140 ft | 11 kts | 279° |
| 2026-05-07 16:57 | 59.65930 | 17.92136 | 144 ft | 7 kts | 253° |
| 2026-05-07 16:58 | 59.65876 | 17.92104 | 144 ft | 14 kts | 190° |
| 2026-05-07 16:58 | 59.65553 | 17.91982 | 143 ft | 87 kts | 191° |
| 2026-05-07 16:58 | 59.64718 | 17.91679 | 146 ft | 155 kts | 190° |
| 2026-05-07 16:58 | 59.63586 | 17.91260 | 673 ft | 172 kts | 190° |
| 2026-05-07 16:59 | 59.62404 | 17.90891 | 1606 ft | 170 kts | 191° |
| 2026-05-07 16:59 | 59.61321 | 17.89829 | 2222 ft | 189 kts | 227° |
| 2026-05-07 16:59 | 59.60547 | 17.87530 | 2599 ft | 211 kts | 239° |
| 2026-05-07 16:59 | 59.59741 | 17.84928 | 2886 ft | 232 kts | 238° |
| 2026-05-07 17:00 | 59.58844 | 17.82199 | 3488 ft | 237 kts | 238° |
| 2026-05-07 17:00 | 59.57986 | 17.79341 | 4007 ft | 255 kts | 242° |
| 2026-05-07 17:00 | 59.57158 | 17.76129 | 4622 ft | 267 kts | 243° |
| 2026-05-07 17:00 | 59.56081 | 17.73177 | 5543 ft | 269 kts | 223° |
| 2026-05-07 17:01 | 59.54509 | 17.71101 | 6346 ft | 273 kts | 208° |
| 2026-05-07 17:01 | 59.52827 | 17.69496 | 7750 ft | 270 kts | 207° |
| 2026-05-07 17:01 | 59.51107 | 17.67949 | 8633 ft | 274 kts | 207° |
| 2026-05-07 17:01 | 59.49369 | 17.66373 | 9507 ft | 277 kts | 207° |
| 2026-05-07 17:02 | 59.47609 | 17.64745 | 10325 ft | 281 kts | 208° |
| 2026-05-07 17:02 | 59.46422 | 17.63629 | 10622 ft | 292 kts | 208° |
| 2026-05-07 17:02 | 59.43828 | 17.61148 | 10882 ft | 325 kts | 208° |
| 2026-05-07 17:02 | 59.42464 | 17.59778 | 10994 ft | 340 kts | 213° |
| 2026-05-07 17:03 | 59.40463 | 17.57071 | 11267 ft | 356 kts | 219° |
| 2026-05-07 17:03 | 59.38478 | 17.54094 | 11904 ft | 362 kts | 219° |
| 2026-05-07 17:03 | 59.36479 | 17.51055 | 12675 ft | 364 kts | 219° |
| 2026-05-07 17:03 | 59.33816 | 17.47024 | 13695 ft | 367 kts | 219° |
| 2026-05-07 17:04 | 59.32444 | 17.44963 | 14148 ft | 369 kts | 219° |
| 2026-05-07 17:04 | 59.30392 | 17.41902 | 14814 ft | 371 kts | 219° |
| 2026-05-07 17:04 | 59.28329 | 17.38843 | 15498 ft | 373 kts | 219° |
| 2026-05-07 17:04 | 59.26272 | 17.35809 | 16158 ft | 375 kts | 219° |
| 2026-05-07 17:05 | 59.24172 | 17.32721 | 16826 ft | 378 kts | 219° |
| 2026-05-07 17:05 | 59.22062 | 17.29628 | 17470 ft | 380 kts | 219° |
| 2026-05-07 17:05 | 59.19917 | 17.26489 | 18106 ft | 383 kts | 219° |
| 2026-05-07 17:05 | 59.17794 | 17.23389 | 18679 ft | 385 kts | 220° |
| 2026-05-07 17:06 | 59.15646 | 17.20258 | 19262 ft | 386 kts | 220° |
| 2026-05-07 17:06 | 59.13489 | 17.17121 | 19847 ft | 387 kts | 220° |
| 2026-05-07 17:06 | 59.11359 | 17.14027 | 20381 ft | 388 kts | 220° |
| 2026-05-07 17:06 | 59.09188 | 17.10877 | 20918 ft | 390 kts | 220° |
| 2026-05-07 17:07 | 59.07006 | 17.07717 | 21452 ft | 391 kts | 220° |
| 2026-05-07 17:07 | 59.04821 | 17.04557 | 21959 ft | 393 kts | 220° |
| 2026-05-07 17:07 | 59.02612 | 17.01368 | 22448 ft | 395 kts | 220° |
| 2026-05-07 17:07 | 59.00398 | 16.98177 | 22942 ft | 397 kts | 220° |
| 2026-05-07 17:08 | 58.98175 | 16.94979 | 23432 ft | 399 kts | 220° |
| 2026-05-07 17:08 | 58.95940 | 16.91768 | 23848 ft | 401 kts | 220° |
| 2026-05-07 17:08 | 58.93695 | 16.88549 | 24217 ft | 403 kts | 220° |
| 2026-05-07 17:08 | 58.91433 | 16.85311 | 24601 ft | 404 kts | 220° |
| 2026-05-07 17:09 | 58.89172 | 16.82079 | 24982 ft | 405 kts | 220° |
| 2026-05-07 17:09 | 58.86901 | 16.78840 | 25348 ft | 406 kts | 220° |
| 2026-05-07 17:09 | 58.84650 | 16.75633 | 25669 ft | 408 kts | 219° |
| 2026-05-07 17:09 | 58.82328 | 16.72331 | 26014 ft | 410 kts | 219° |
| 2026-05-07 17:10 | 58.80030 | 16.69069 | 26358 ft | 411 kts | 219° |
| 2026-05-07 17:10 | 58.77753 | 16.65841 | 26665 ft | 412 kts | 219° |
| 2026-05-07 17:10 | 58.75433 | 16.62558 | 26952 ft | 415 kts | 219° |
| 2026-05-07 17:10 | 58.73104 | 16.59268 | 27254 ft | 416 kts | 219° |
| 2026-05-07 17:11 | 58.70766 | 16.55971 | 27561 ft | 417 kts | 219° |
| 2026-05-07 17:11 | 58.68422 | 16.52672 | 27874 ft | 418 kts | 219° |
| 2026-05-07 17:11 | 58.66078 | 16.49379 | 28281 ft | 416 kts | 218° |
| 2026-05-07 17:11 | 58.63746 | 16.46109 | 28770 ft | 413 kts | 218° |
| 2026-05-07 17:12 | 58.61430 | 16.42866 | 29248 ft | 411 kts | 218° |
| 2026-05-07 17:12 | 58.59124 | 16.39642 | 29665 ft | 410 kts | 218° |
| 2026-05-07 17:12 | 58.56822 | 16.36428 | 30022 ft | 409 kts | 218° |
| 2026-05-07 17:12 | 58.54519 | 16.33218 | 30388 ft | 408 kts | 218° |
| 2026-05-07 17:13 | 58.52217 | 16.30015 | 30728 ft | 407 kts | 218° |
| 2026-05-07 17:13 | 58.49927 | 16.26833 | 31006 ft | 408 kts | 218° |
| 2026-05-07 17:13 | 58.47626 | 16.23641 | 31260 ft | 408 kts | 218° |
| 2026-05-07 17:13 | 58.45355 | 16.20496 | 31559 ft | 408 kts | 218° |
| 2026-05-07 17:14 | 58.43055 | 16.17317 | 31895 ft | 407 kts | 218° |
| 2026-05-07 17:14 | 58.40767 | 16.14160 | 32185 ft | 407 kts | 218° |
| 2026-05-07 17:14 | 58.38469 | 16.10993 | 32409 ft | 408 kts | 218° |
| 2026-05-07 17:14 | 58.36167 | 16.07827 | 32679 ft | 408 kts | 218° |
| 2026-05-07 17:15 | 58.33872 | 16.04675 | 33004 ft | 406 kts | 218° |
| 2026-05-07 17:15 | 58.31577 | 16.01530 | 33262 ft | 407 kts | 218° |
| 2026-05-07 17:15 | 58.29269 | 15.98370 | 33434 ft | 409 kts | 218° |
| 2026-05-07 17:15 | 58.26951 | 15.95201 | 33612 ft | 411 kts | 218° |
| 2026-05-07 17:16 | 58.24622 | 15.92024 | 33857 ft | 411 kts | 218° |
| 2026-05-07 17:16 | 58.22304 | 15.88866 | 34087 ft | 411 kts | 218° |
| 2026-05-07 17:16 | 58.17653 | 15.82546 | 34086 ft | 414 kts | 218° |
| 2026-05-07 17:17 | 58.12975 | 15.76213 | 34084 ft | 412 kts | 218° |
| 2026-05-07 17:17 | 58.08306 | 15.69910 | 34095 ft | 412 kts | 218° |
| 2026-05-07 17:18 | 58.03635 | 15.63622 | 34099 ft | 412 kts | 218° |
| 2026-05-07 17:18 | 57.98960 | 15.57351 | 34100 ft | 413 kts | 218° |
| 2026-05-07 17:19 | 57.94321 | 15.50948 | 34088 ft | 414 kts | 219° |
| 2026-05-07 17:19 | 57.89734 | 15.44474 | 34094 ft | 415 kts | 219° |
| 2026-05-07 17:20 | 57.85098 | 15.37954 | 34084 ft | 417 kts | 219° |
| 2026-05-07 17:20 | 57.80428 | 15.31431 | 34090 ft | 418 kts | 218° |